createdAt,value
2023-09-09T00:00:13.750Z,8.13
2023-09-09T00:02:16.727Z,7.13
2023-09-09T00:04:20.358Z,8.02
2023-09-09T00:06:25.613Z,7.22
2023-09-09T00:08:32.778Z,7.13
2023-09-09T00:10:42.259Z,7.30
2023-09-09T00:12:53.566Z,6.75
2023-09-09T00:15:08.497Z,7.38
2023-09-09T00:17:12.238Z,8.05
2023-09-09T00:19:15.322Z,6.57
2023-09-09T00:21:30.744Z,7.63
2023-09-09T00:23:44.042Z,8.77
2023-09-09T00:25:48.187Z,6.72
2023-09-09T00:27:52.047Z,7.53
2023-09-09T00:29:54.681Z,7.28
2023-09-09T00:31:59.853Z,6.47
2023-09-09T00:34:02.897Z,6.95
2023-09-09T00:36:09.044Z,9.35
2023-09-09T00:38:32.953Z,6.90
2023-09-09T00:41:20.301Z,8.52
2023-09-09T00:43:28.800Z,6.85
2023-09-09T00:45:48.556Z,6.75
2023-09-09T00:48:01.167Z,7.82
2023-09-09T00:50:25.131Z,7.43
2023-09-09T00:52:40.085Z,6.68
2023-09-09T00:54:55.752Z,9.82
2023-09-09T00:57:12.274Z,7.28
2023-09-09T00:59:22.831Z,6.82
2023-09-09T01:01:28.230Z,7.80
2023-09-09T01:03:33.295Z,6.95
2023-09-09T01:05:38.963Z,6.55
2023-09-09T01:07:48.421Z,7.88
2023-09-09T01:09:56.409Z,6.88
2023-09-09T01:12:14.096Z,7.30
2023-09-09T01:14:21.763Z,7.22
2023-09-09T01:16:32.879Z,8.93
2023-09-09T01:18:36.320Z,7.63
2023-09-09T01:20:49.794Z,7.18
2023-09-09T01:23:00.905Z,9.70
2023-09-09T01:25:13.962Z,7.30
2023-09-09T01:27:52.791Z,7.40
2023-09-09T01:30:00.759Z,7.43
2023-09-09T01:32:04.391Z,7.28
2023-09-09T01:34:12.618Z,8.38
2023-09-09T01:36:28.160Z,7.70
2023-09-09T01:38:40.807Z,8.82
2023-09-09T01:40:53.053Z,7.63
2023-09-09T01:43:02.716Z,6.78
2023-09-09T01:45:12.087Z,7.20
2023-09-09T01:47:14.863Z,7.32
2023-09-09T01:49:29.671Z,7.63
2023-09-09T01:51:37.981Z,6.97
2023-09-09T01:53:44.714Z,7.93
2023-09-09T01:55:53.608Z,7.82
2023-09-09T01:58:01.481Z,8.55
2023-09-09T02:00:13.701Z,8.50
2023-09-09T02:02:23.704Z,7.95
2023-09-09T02:04:28.445Z,7.85
2023-09-09T02:06:33.722Z,9.05
2023-09-09T02:08:42.622Z,11.55
2023-09-09T02:10:54.749Z,9.48
2023-09-09T02:13:02.657Z,8.95
2023-09-09T02:15:08.652Z,8.77
2023-09-09T02:17:19.239Z,8.00
2023-09-09T02:19:25.229Z,7.82
2023-09-09T02:21:33.144Z,8.13
2023-09-09T02:23:44.205Z,8.38
2023-09-09T02:25:51.341Z,9.05
2023-09-09T02:28:07.157Z,8.07
2023-09-09T02:30:12.639Z,8.50
2023-09-09T02:32:15.685Z,8.52
2023-09-09T02:34:25.589Z,8.55
2023-09-09T02:36:35.998Z,10.18
2023-09-09T02:38:44.216Z,8.35
2023-09-09T02:40:50.713Z,8.60
2023-09-09T02:43:03.908Z,11.07
2023-09-09T02:45:08.506Z,8.75
2023-09-09T02:47:13.840Z,9.02
2023-09-09T02:49:17.312Z,8.55
2023-09-09T02:51:24.050Z,10.75
2023-09-09T02:53:31.437Z,8.95
2023-09-09T02:55:36.368Z,12.02
2023-09-09T02:57:50.925Z,9.25
2023-09-09T03:00:00.139Z,9.40
2023-09-09T03:02:09.554Z,9.50
2023-09-09T03:04:14.024Z,8.20
2023-09-09T03:06:17.316Z,8.50
2023-09-09T03:08:21.164Z,8.23
2023-09-09T03:10:28.145Z,8.20
2023-09-09T03:12:32.370Z,7.85
2023-09-09T03:14:39.609Z,7.82
2023-09-09T03:16:43.120Z,7.82
2023-09-09T03:18:46.106Z,9.68
2023-09-09T03:20:49.332Z,7.68
2023-09-09T03:22:56.641Z,7.75
2023-09-09T03:24:59.924Z,8.45
2023-09-09T03:27:06.632Z,8.30
2023-09-09T03:29:08.559Z,7.80
2023-09-09T03:31:14.725Z,7.32
2023-09-09T03:33:25.754Z,8.02
2023-09-09T03:35:29.706Z,8.18
2023-09-09T03:37:35.401Z,8.30
2023-09-09T03:39:45.738Z,8.27
2023-09-09T03:41:51.495Z,8.05
2023-09-09T03:43:56.442Z,7.90
2023-09-09T03:46:01.293Z,7.68
2023-09-09T03:48:07.427Z,7.75
2023-09-09T03:50:23.081Z,7.72
2023-09-09T03:52:34.468Z,7.60
2023-09-09T03:54:42.696Z,8.95
2023-09-09T03:56:53.865Z,8.48
2023-09-09T03:58:57.219Z,8.57
2023-09-09T04:01:07.811Z,7.35
2023-09-09T04:03:09.986Z,8.07
2023-09-09T04:05:17.700Z,8.07
2023-09-09T04:07:23.692Z,8.00
2023-09-09T04:09:44.643Z,9.20
2023-09-09T04:11:53.345Z,7.93
2023-09-09T04:14:00.721Z,8.20
2023-09-09T04:16:21.174Z,8.80
2023-09-09T04:18:38.221Z,9.70
2023-09-09T04:20:49.524Z,8.73
2023-09-09T04:22:56.821Z,8.77
2023-09-09T04:25:08.706Z,8.27
2023-09-09T04:27:11.725Z,8.95
2023-09-09T04:29:14.783Z,9.32
2023-09-09T04:31:17.691Z,9.63
2023-09-09T04:33:21.359Z,9.73
2023-09-09T04:35:30.129Z,9.60
2023-09-09T04:37:37.946Z,9.13
2023-09-09T04:39:47.012Z,9.45
2023-09-09T04:41:52.402Z,9.80
2023-09-09T04:43:59.726Z,12.88
2023-09-09T04:46:09.426Z,10.13
2023-09-09T04:48:12.520Z,9.55
2023-09-09T04:50:22.066Z,10.48
2023-09-09T04:52:25.374Z,10.15
2023-09-09T04:54:30.074Z,11.90
2023-09-09T04:56:35.106Z,9.20
2023-09-09T04:58:38.180Z,9.82
2023-09-09T05:00:42.760Z,11.80
2023-09-09T05:02:48.015Z,9.98
2023-09-09T05:04:51.618Z,9.52
2023-09-09T05:06:57.636Z,9.85
2023-09-09T05:09:05.281Z,9.55
2023-09-09T05:11:15.673Z,10.13
2023-09-09T05:13:21.455Z,9.00
2023-09-09T05:15:24.913Z,9.98
2023-09-09T05:17:28.270Z,9.63
2023-09-09T05:19:31.617Z,9.23
2023-09-09T05:21:38.816Z,9.95
2023-09-09T05:23:44.642Z,9.27
2023-09-09T05:25:54.011Z,11.48
2023-09-09T05:27:58.455Z,9.43
2023-09-09T05:30:01.225Z,9.95
2023-09-09T05:32:04.288Z,9.65
2023-09-09T05:34:07.295Z,9.20
2023-09-09T05:36:10.478Z,8.98
2023-09-09T05:38:15.229Z,8.68
2023-09-09T05:40:18.034Z,9.50
2023-09-09T05:42:20.788Z,9.65
2023-09-09T05:44:25.155Z,8.57
2023-09-09T05:46:28.031Z,9.30
2023-09-09T05:48:31.343Z,7.63
2023-09-09T05:50:34.106Z,8.55
2023-09-09T05:52:37.078Z,8.40
2023-09-09T05:54:40.952Z,9.48
2023-09-09T05:56:44.022Z,8.85
2023-09-09T05:58:46.819Z,8.80
2023-09-09T06:00:50.968Z,8.30
2023-09-09T06:02:53.836Z,8.50
2023-09-09T06:04:56.793Z,7.68
2023-09-09T06:06:59.830Z,7.28
2023-09-09T06:09:02.799Z,7.57
2023-09-09T06:11:05.631Z,7.25
2023-09-09T06:13:08.438Z,7.35
2023-09-09T06:15:11.982Z,7.15
2023-09-09T06:17:16.152Z,9.10
2023-09-09T06:19:18.358Z,7.43
2023-09-09T06:21:22.366Z,8.73
2023-09-09T06:23:24.276Z,8.25
2023-09-09T06:25:27.547Z,7.47
2023-09-09T06:27:30.342Z,7.10
2023-09-09T06:29:33.270Z,8.07
2023-09-09T06:31:36.178Z,8.57
2023-09-09T06:33:43.906Z,11.52
2023-09-09T06:35:49.793Z,7.65
2023-09-09T06:37:52.656Z,8.05
2023-09-09T06:39:55.564Z,7.95
2023-09-09T06:41:58.457Z,7.93
2023-09-09T06:44:01.399Z,8.13
2023-09-09T06:46:04.211Z,8.50
2023-09-09T06:48:06.223Z,10.30
2023-09-09T06:50:11.242Z,7.32
2023-09-09T06:52:14.090Z,7.70
2023-09-09T06:54:16.918Z,7.55
2023-09-09T06:56:19.694Z,7.45
2023-09-09T06:58:23.130Z,7.50
2023-09-09T07:00:26.006Z,7.47
2023-09-09T07:02:28.824Z,7.15
2023-09-09T07:04:32.381Z,9.27
2023-09-09T07:06:36.698Z,8.13
2023-09-09T07:08:41.364Z,8.10
2023-09-09T07:10:51.731Z,9.57
2023-09-09T07:12:56.240Z,8.18
2023-09-09T07:14:58.081Z,7.90
2023-09-09T07:17:00.800Z,8.88
2023-09-09T07:19:03.541Z,8.18
2023-09-09T07:21:07.119Z,8.52
2023-09-09T07:23:11.594Z,8.48
2023-09-09T07:25:14.528Z,8.13
2023-09-09T07:27:17.370Z,8.27
2023-09-09T07:29:20.342Z,7.50
2023-09-09T07:31:23.232Z,8.50
2023-09-09T07:33:26.506Z,7.90
2023-09-09T07:35:29.323Z,11.02
2023-09-09T07:37:32.190Z,7.88
2023-09-09T07:39:46.128Z,7.38
2023-09-09T07:41:49.024Z,8.23
2023-09-09T07:43:51.803Z,9.65
2023-09-09T07:46:02.100Z,8.13
2023-09-09T07:48:12.937Z,8.93
2023-09-09T07:50:35.295Z,7.43
2023-09-09T07:57:55.257Z,7.03
2023-09-09T08:05:05.236Z,7.65
2023-09-09T08:07:29.218Z,6.55
2023-09-09T08:09:46.049Z,6.80
2023-09-09T08:12:29.212Z,7.30
2023-09-09T08:14:52.233Z,7.72
2023-09-09T08:17:24.743Z,8.73
2023-09-09T08:21:06.357Z,8.27
2023-09-09T08:26:23.188Z,5.35
2023-09-09T08:28:28.120Z,6.07
2023-09-09T08:30:36.444Z,5.82
2023-09-09T08:32:39.815Z,8.80
2023-09-09T08:34:44.507Z,5.50
2023-09-09T08:36:50.773Z,6.60
2023-09-09T08:38:58.565Z,5.90
2023-09-09T08:41:09.413Z,6.00
2023-09-09T08:43:21.276Z,7.10
2023-09-09T08:45:37.008Z,8.02
2023-09-09T08:47:49.757Z,5.85
2023-09-09T08:50:04.125Z,6.97
2023-09-09T08:52:18.780Z,5.75
2023-09-09T08:54:21.846Z,5.82
2023-09-09T08:56:30.410Z,7.20
2023-09-09T08:58:34.337Z,5.30
2023-09-09T09:00:44.253Z,5.78
2023-09-09T09:02:55.374Z,6.97
2023-09-09T09:05:01.927Z,5.55
2023-09-09T09:07:08.385Z,7.40
2023-09-09T09:09:11.951Z,6.00
2023-09-09T09:11:15.876Z,7.55
2023-09-09T09:13:21.946Z,5.85
2023-09-09T09:15:26.638Z,6.43
2023-09-09T09:17:34.428Z,6.53
2023-09-09T09:19:37.729Z,6.35
2023-09-09T09:21:41.090Z,7.40
2023-09-09T09:23:45.080Z,10.88
2023-09-09T09:25:49.179Z,17.25
2023-09-09T09:27:52.180Z,5.47
2023-09-09T09:29:55.136Z,7.57
2023-09-09T09:31:58.083Z,8.20
2023-09-09T09:34:05.491Z,5.65
2023-09-09T09:36:10.822Z,6.75
2023-09-09T09:38:19.089Z,5.90
2023-09-09T09:40:22.333Z,6.38
2023-09-09T09:42:36.842Z,5.53
2023-09-09T09:44:40.127Z,8.07
2023-09-09T09:46:43.129Z,7.13
2023-09-09T09:48:46.771Z,6.47
2023-09-09T09:50:54.230Z,6.07
2023-09-09T09:53:02.990Z,5.82
2023-09-09T09:55:07.169Z,5.45
2023-09-09T09:57:10.397Z,5.68
2023-09-09T09:59:13.369Z,6.07
2023-09-09T10:01:17.405Z,6.20
2023-09-09T10:03:24.890Z,6.13
2023-09-09T10:05:29.793Z,5.50
2023-09-09T10:07:42.422Z,8.55
2023-09-09T10:09:52.682Z,6.97
2023-09-09T10:12:06.923Z,5.55
2023-09-09T10:14:15.544Z,7.93
2023-09-09T10:16:20.276Z,7.15
2023-09-09T10:18:24.450Z,6.65
2023-09-09T10:20:28.407Z,5.50
2023-09-09T10:22:32.803Z,6.30
2023-09-09T10:24:38.096Z,6.22
2023-09-09T10:26:42.064Z,7.40
2023-09-09T10:28:46.326Z,5.95
2023-09-09T10:30:50.707Z,6.68
2023-09-09T10:32:56.862Z,5.95
2023-09-09T10:35:00.671Z,9.02
2023-09-09T10:37:05.681Z,7.45
2023-09-09T10:39:09.924Z,7.93
2023-09-09T10:41:17.148Z,6.45
2023-09-09T10:43:20.224Z,7.40
2023-09-09T10:45:28.836Z,6.65
2023-09-09T10:47:31.907Z,6.25
2023-09-09T10:49:35.120Z,6.45
2023-09-09T10:51:51.581Z,6.85
2023-09-09T10:54:08.520Z,8.25
2023-09-09T10:56:27.722Z,6.55
2023-09-09T10:58:35.630Z,8.57
2023-09-09T11:00:39.978Z,5.90
2023-09-09T11:02:48.041Z,8.60
2023-09-09T11:05:00.545Z,6.45
2023-09-09T11:07:07.680Z,6.05
2023-09-09T11:09:12.638Z,8.45
2023-09-09T11:11:17.283Z,6.40
2023-09-09T11:13:21.744Z,5.68
2023-09-09T11:15:27.148Z,7.30
2023-09-09T11:17:30.755Z,7.32
2023-09-09T11:19:36.554Z,6.38
2023-09-09T11:21:41.869Z,5.53
2023-09-09T11:23:47.269Z,6.47
2023-09-09T11:25:54.838Z,7.13
2023-09-09T11:27:59.188Z,9.50
2023-09-09T11:30:03.715Z,7.60
2023-09-09T11:32:10.547Z,7.57
2023-09-09T11:34:14.271Z,5.68
2023-09-09T11:36:18.931Z,5.70
2023-09-09T11:38:23.503Z,8.30
2023-09-09T11:40:29.150Z,6.40
2023-09-09T11:42:32.192Z,7.43
2023-09-09T11:44:40.605Z,5.65
2023-09-09T11:46:46.904Z,7.13
2023-09-09T11:48:53.143Z,7.43
2023-09-09T11:50:57.048Z,5.82
2023-09-09T11:53:01.750Z,6.28
2023-09-09T11:55:04.918Z,7.70
2023-09-09T11:57:10.070Z,5.80
2023-09-09T11:59:13.619Z,6.05
2023-09-09T12:01:16.128Z,6.57
2023-09-09T12:03:24.643Z,5.68
2023-09-09T12:05:30.857Z,6.00
2023-09-09T12:07:35.866Z,11.30
2023-09-09T12:09:39.040Z,6.20
2023-09-09T12:11:43.992Z,5.80
2023-09-09T12:13:48.120Z,5.80
2023-09-09T12:16:03.866Z,5.40
2023-09-09T12:18:13.626Z,5.97
2023-09-09T12:20:17.902Z,6.05
2023-09-09T12:22:31.838Z,5.82
2023-09-09T12:24:42.740Z,8.80
2023-09-09T12:26:53.415Z,5.22
2023-09-09T12:29:07.635Z,5.13
2023-09-09T12:31:12.949Z,5.60
2023-09-09T12:33:17.494Z,4.68
2023-09-09T12:35:22.772Z,4.60
2023-09-09T12:37:25.661Z,9.57
2023-09-09T12:39:30.363Z,4.78
2023-09-09T12:41:33.250Z,6.65
2023-09-09T12:43:35.887Z,5.43
2023-09-09T12:45:49.765Z,7.72
2023-09-09T12:47:53.157Z,5.10
2023-09-09T12:49:56.107Z,4.15
2023-09-09T12:52:00.596Z,7.25
2023-09-09T12:54:03.524Z,4.88
2023-09-09T12:56:07.839Z,5.28
2023-09-09T12:58:10.661Z,4.65
2023-09-09T13:00:17.111Z,4.60
2023-09-09T13:02:19.995Z,5.07
2023-09-09T13:04:22.875Z,4.95
2023-09-09T13:06:25.728Z,6.25
2023-09-09T13:08:28.898Z,7.10
2023-09-09T13:10:31.715Z,5.50
2023-09-09T13:12:34.632Z,5.18
2023-09-09T13:14:36.464Z,4.70
2023-09-09T13:16:41.945Z,6.72
2023-09-09T13:18:45.406Z,4.35
2023-09-09T13:20:48.550Z,7.60
2023-09-09T13:22:51.435Z,6.47
2023-09-09T13:24:55.901Z,7.68
2023-09-09T13:26:58.856Z,5.75
2023-09-09T13:29:01.787Z,7.18
2023-09-09T13:31:04.861Z,4.88
2023-09-09T13:33:07.745Z,5.53
2023-09-09T13:35:10.708Z,5.00
2023-09-09T13:37:13.814Z,4.57
2023-09-09T13:39:16.793Z,4.53
2023-09-09T13:41:21.184Z,5.43
2023-09-09T13:43:24.113Z,7.40
2023-09-09T13:45:27.313Z,4.53
2023-09-09T13:47:30.153Z,4.38
2023-09-09T13:49:32.188Z,5.25
2023-09-09T13:51:35.021Z,7.78
2023-09-09T13:53:37.915Z,4.95
2023-09-09T13:55:40.743Z,5.28
2023-09-09T13:57:46.592Z,6.97
2023-09-09T13:59:49.423Z,6.00
2023-09-09T14:01:52.345Z,5.80
2023-09-09T14:03:55.653Z,4.88
2023-09-09T14:05:59.004Z,6.50
2023-09-09T14:08:02.013Z,5.90
2023-09-09T14:10:05.501Z,6.75
2023-09-09T14:12:09.136Z,4.90
2023-09-09T14:14:14.438Z,4.28
2023-09-09T14:16:17.362Z,12.55
2023-09-09T14:18:20.340Z,7.32
2023-09-09T14:20:23.192Z,6.45
2023-09-09T14:22:26.006Z,6.32
2023-09-09T14:24:28.792Z,9.00
2023-09-09T14:26:31.599Z,6.78
2023-09-09T14:28:34.486Z,8.98
2023-09-09T14:30:38.816Z,7.03
2023-09-09T14:32:41.772Z,6.63
2023-09-09T14:34:44.732Z,5.47
2023-09-09T14:36:47.512Z,8.13
2023-09-09T14:38:50.704Z,6.45
2023-09-09T14:40:53.984Z,5.47
2023-09-09T14:42:56.776Z,4.95
2023-09-09T14:44:59.639Z,5.30
2023-09-09T14:47:03.950Z,4.70
2023-09-09T14:49:06.894Z,6.72
2023-09-09T14:51:09.825Z,7.05
2023-09-09T14:53:13.141Z,6.68
2023-09-09T14:55:16.282Z,5.70
2023-09-09T14:57:19.134Z,19.98
2023-09-09T14:59:21.947Z,4.75
2023-09-09T15:01:24.907Z,10.95
2023-09-09T15:03:28.096Z,12.75
2023-09-09T15:05:30.895Z,7.97
2023-09-09T15:07:33.663Z,5.63
2023-09-09T15:09:36.474Z,4.80
2023-09-09T15:11:39.217Z,9.52
2023-09-09T15:13:41.935Z,5.75
2023-09-09T15:15:45.495Z,5.05
2023-09-09T15:17:50.014Z,6.15
2023-09-09T15:19:55.826Z,5.68
2023-09-09T15:21:58.918Z,5.03
2023-09-09T15:24:01.690Z,88.05
2023-09-09T15:26:04.699Z,67.55
2023-09-09T15:28:06.961Z,8.88
2023-09-09T15:30:11.895Z,5.72
2023-09-09T15:32:15.007Z,7.68
2023-09-09T15:34:17.037Z,6.65
2023-09-09T15:36:21.288Z,4.72
2023-09-09T15:38:26.016Z,6.55
2023-09-09T15:40:28.847Z,4.35
2023-09-09T15:42:31.715Z,4.43
2023-09-09T15:44:34.706Z,4.47
2023-09-09T15:46:37.678Z,5.32
2023-09-09T15:48:40.825Z,7.15
2023-09-09T15:50:43.836Z,4.72
2023-09-09T15:52:48.128Z,4.70
2023-09-09T15:54:50.952Z,4.97
2023-09-09T15:56:53.745Z,6.72
2023-09-09T15:58:57.034Z,4.75
2023-09-09T16:01:01.768Z,4.90
2023-09-09T16:03:05.286Z,6.63
2023-09-09T16:05:08.492Z,5.45
2023-09-09T16:07:11.501Z,6.68
2023-09-09T16:09:16.880Z,11.82
2023-09-09T16:11:19.686Z,7.38
2023-09-09T16:13:22.673Z,5.65
2023-09-09T16:15:25.647Z,5.95
2023-09-09T16:17:29.983Z,4.55
2023-09-09T16:19:32.878Z,4.63
2023-09-09T16:21:39.994Z,5.32
2023-09-09T16:23:42.712Z,5.93
2023-09-09T16:25:47.635Z,10.38
2023-09-09T16:27:50.486Z,6.00
2023-09-09T16:29:53.273Z,8.82
2023-09-09T16:31:56.585Z,8.93
2023-09-09T16:34:01.592Z,6.25
2023-09-09T16:36:05.740Z,23.58
2023-09-09T16:38:09.658Z,5.22
2023-09-09T16:40:13.313Z,10.73
2023-09-09T16:42:17.560Z,5.05
2023-09-09T16:44:20.333Z,6.78
2023-09-09T16:46:23.294Z,5.63
2023-09-09T16:48:26.744Z,54.92
2023-09-09T16:50:31.412Z,83.90
2023-09-09T16:52:34.570Z,39.08
2023-09-09T16:54:37.459Z,25.77
2023-09-09T16:56:46.462Z,23.00
2023-09-09T16:58:50.808Z,109.88
2023-09-09T17:00:53.786Z,181.93
2023-09-09T17:02:56.719Z,63.60
2023-09-09T17:04:59.743Z,24.92
2023-09-09T17:07:03.249Z,15.90
2023-09-09T17:09:06.080Z,7.60
2023-09-09T17:11:07.890Z,7.50
2023-09-09T17:13:10.665Z,8.07
2023-09-09T17:15:15.056Z,13.43
2023-09-09T17:17:17.876Z,6.50
2023-09-09T17:19:19.742Z,4.90
2023-09-09T17:21:22.805Z,6.65
2023-09-09T17:23:25.709Z,4.97
2023-09-09T17:25:28.909Z,5.53
2023-09-09T17:27:31.994Z,6.78
2023-09-09T17:29:33.807Z,4.47
2023-09-09T17:31:38.127Z,4.80
2023-09-09T17:33:41.254Z,6.43
2023-09-09T17:35:44.355Z,9.50
2023-09-09T17:37:47.104Z,5.45
2023-09-09T17:39:49.863Z,5.80
2023-09-09T17:41:52.833Z,5.82
2023-09-09T17:43:57.390Z,4.85
2023-09-09T17:46:00.665Z,5.47
2023-09-09T17:48:05.627Z,5.20
2023-09-09T17:50:09.095Z,5.18
2023-09-09T17:52:11.985Z,6.68
2023-09-09T17:54:14.763Z,5.50
2023-09-09T17:56:17.557Z,7.82
2023-09-09T17:58:20.356Z,7.80
2023-09-09T18:00:23.473Z,6.07
2023-09-09T18:02:26.315Z,5.70
2023-09-09T18:04:30.583Z,6.35
2023-09-09T18:06:33.390Z,6.15
2023-09-09T18:08:36.529Z,10.07
2023-09-09T18:10:41.623Z,6.35
2023-09-09T18:12:43.471Z,7.15
2023-09-09T18:14:47.002Z,6.30
2023-09-09T18:16:49.905Z,5.85
2023-09-09T18:18:52.690Z,8.18
2023-09-09T18:20:56.760Z,5.90
2023-09-09T18:22:58.563Z,6.05
2023-09-09T18:25:02.049Z,6.30
2023-09-09T18:27:05.395Z,7.88
2023-09-09T18:29:08.185Z,7.07
2023-09-09T18:31:11.216Z,5.45
2023-09-09T18:33:14.870Z,6.50
2023-09-09T18:35:17.724Z,5.75
2023-09-09T18:37:22.631Z,7.75
2023-09-09T18:39:25.728Z,7.70
2023-09-09T18:41:28.555Z,6.75
2023-09-09T18:43:31.500Z,8.05
2023-09-09T18:45:35.261Z,9.43
2023-09-09T18:47:38.128Z,8.38
2023-09-09T18:49:41.058Z,7.40
2023-09-09T18:51:43.021Z,7.03
2023-09-09T18:53:47.206Z,7.43
2023-09-09T18:55:50.055Z,7.07
2023-09-09T18:57:53.315Z,8.98
2023-09-09T18:59:56.113Z,7.53
2023-09-09T19:01:58.938Z,9.23
2023-09-09T19:04:01.864Z,9.73
2023-09-09T19:06:05.049Z,7.95
2023-09-09T19:08:07.919Z,7.32
2023-09-09T19:10:12.851Z,10.35
2023-09-09T19:12:15.659Z,7.45
2023-09-09T19:14:18.442Z,11.40
2023-09-09T19:16:21.444Z,7.35
2023-09-09T19:18:24.397Z,8.30
2023-09-09T19:20:26.480Z,7.85
2023-09-09T19:22:29.283Z,10.45
2023-09-09T19:24:32.077Z,7.60
2023-09-09T19:26:38.100Z,11.23
2023-09-09T19:28:41.183Z,7.53
2023-09-09T19:30:44.284Z,9.50
2023-09-09T19:32:47.168Z,10.93
2023-09-09T19:34:52.809Z,9.23
2023-09-09T19:36:56.088Z,8.55
2023-09-09T19:38:58.880Z,8.40
2023-09-09T19:41:01.680Z,7.90
2023-09-09T19:43:05.942Z,8.50
2023-09-09T19:45:13.251Z,9.13
2023-09-09T19:47:16.609Z,7.18
2023-09-09T19:49:19.370Z,10.98
2023-09-09T19:51:24.229Z,7.28
2023-09-09T19:53:27.462Z,7.70
2023-09-09T19:55:30.255Z,7.50
2023-09-09T19:57:33.037Z,8.15
2023-09-09T19:59:37.665Z,7.25
2023-09-09T20:01:40.634Z,12.43
2023-09-09T20:03:44.098Z,6.95
2023-09-09T20:05:50.185Z,7.72
2023-09-09T20:07:56.244Z,8.00
2023-09-09T20:10:09.157Z,7.68
2023-09-09T20:12:14.886Z,7.78
2023-09-09T20:14:17.657Z,8.15
2023-09-09T20:16:21.884Z,9.15
2023-09-09T20:18:25.102Z,8.23
2023-09-09T20:20:27.915Z,7.90
2023-09-09T20:22:30.754Z,8.23
2023-09-09T20:24:33.525Z,8.30
2023-09-09T20:26:36.606Z,7.85
2023-09-09T20:28:40.870Z,9.77
2023-09-09T20:30:44.186Z,8.05
2023-09-09T20:32:48.444Z,8.88
2023-09-09T20:34:52.763Z,8.30
2023-09-09T20:36:57.021Z,8.15
2023-09-09T20:39:00.204Z,8.23
2023-09-09T20:41:03.151Z,8.50
2023-09-09T20:43:06.203Z,7.88
2023-09-09T20:45:10.584Z,8.00
2023-09-09T20:47:15.554Z,10.73
2023-09-09T20:49:20.767Z,8.35
2023-09-09T20:51:23.534Z,8.40
2023-09-09T20:53:26.790Z,8.15
2023-09-09T20:55:30.210Z,7.70
2023-09-09T20:57:33.435Z,7.60
2023-09-09T20:59:36.254Z,10.27
2023-09-09T21:01:38.147Z,8.30
2023-09-09T21:03:41.598Z,7.30
2023-09-09T21:05:46.451Z,7.40
2023-09-09T21:07:49.787Z,7.40
2023-09-09T21:09:52.828Z,7.85
2023-09-09T21:11:55.581Z,7.65
2023-09-09T21:13:58.413Z,7.93
2023-09-09T21:16:01.616Z,7.45
2023-09-09T21:18:03.849Z,7.75
2023-09-09T21:20:09.325Z,7.60
2023-09-09T21:22:13.835Z,7.75
2023-09-09T21:24:17.183Z,7.05
2023-09-09T21:26:21.100Z,8.60
2023-09-09T21:28:25.475Z,7.20
2023-09-09T21:30:29.073Z,7.47
2023-09-09T21:32:31.055Z,8.05
2023-09-09T21:34:34.061Z,7.80
2023-09-09T21:36:36.826Z,8.30
2023-09-09T21:38:42.087Z,8.07
2023-09-09T21:40:47.049Z,8.32
2023-09-09T21:42:49.803Z,7.75
2023-09-09T21:44:52.593Z,8.43
2023-09-09T21:46:55.677Z,9.43
2023-09-09T21:48:58.587Z,9.25
2023-09-09T21:51:01.372Z,8.20
2023-09-09T21:53:04.363Z,8.63
2023-09-09T21:55:09.838Z,7.88
2023-09-09T21:57:11.656Z,9.65
2023-09-09T21:59:14.460Z,7.95
2023-09-09T22:01:17.464Z,7.65
2023-09-09T22:03:20.577Z,7.78
2023-09-09T22:05:23.496Z,10.32
2023-09-09T22:07:26.286Z,10.43
2023-09-09T22:09:29.382Z,7.40
2023-09-09T22:11:33.491Z,10.13
2023-09-09T22:13:36.344Z,9.48
2023-09-09T22:15:39.115Z,8.27
2023-09-09T22:17:42.126Z,9.68
2023-09-09T22:19:44.189Z,8.32
2023-09-09T22:21:47.186Z,8.75
2023-09-09T22:23:49.985Z,10.80
2023-09-09T22:25:52.777Z,9.63
2023-09-09T22:27:56.924Z,9.07
2023-09-09T22:29:59.805Z,8.77
2023-09-09T22:32:02.577Z,8.43
2023-09-09T22:34:05.468Z,9.57
2023-09-09T22:36:09.052Z,8.88
2023-09-09T22:38:11.981Z,8.63
2023-09-09T22:40:14.816Z,8.23
2023-09-09T22:42:17.067Z,8.80
2023-09-09T22:44:21.180Z,8.27
2023-09-09T22:46:23.952Z,10.48
2023-09-09T22:48:28.276Z,8.10
2023-09-09T22:50:33.443Z,9.65
2023-09-09T22:52:36.203Z,8.50
2023-09-09T22:54:38.028Z,8.57
2023-09-09T22:56:40.857Z,8.43
2023-09-09T22:58:44.085Z,8.73
2023-09-09T23:00:47.318Z,8.63
2023-09-09T23:02:50.139Z,8.80
2023-09-09T23:04:54.548Z,9.07
2023-09-09T23:06:57.525Z,9.57
2023-09-09T23:09:00.255Z,7.90
2023-09-09T23:11:11.493Z,9.45
2023-09-09T23:13:14.369Z,8.40
2023-09-09T23:15:17.197Z,8.55
2023-09-09T23:17:21.881Z,8.52
2023-09-09T23:19:24.649Z,8.93
2023-09-09T23:21:27.661Z,9.13
2023-09-09T23:23:30.486Z,10.20
2023-09-09T23:25:33.628Z,8.40
2023-09-09T23:27:36.378Z,10.98
2023-09-09T23:29:39.142Z,8.80
2023-09-09T23:31:41.930Z,10.27
2023-09-09T23:33:46.088Z,9.35
2023-09-09T23:35:49.362Z,8.63
2023-09-09T23:37:52.216Z,9.13
2023-09-09T23:39:55.242Z,9.63
2023-09-09T23:41:58.235Z,8.48
2023-09-09T23:44:01.666Z,9.18
2023-09-09T23:46:05.482Z,8.35
2023-09-09T23:48:08.661Z,9.45
2023-09-09T23:50:12.995Z,8.52
2023-09-09T23:52:15.290Z,8.57
2023-09-09T23:54:18.014Z,9.18
2023-09-09T23:56:21.501Z,10.20
2023-09-09T23:58:24.949Z,9.88
